Data for 06/19/2009

Time Sea-Level Adjusted Pressure Absolute Pressure Temperature Relative Humidity Dew Point   
(mb) (inHg) (mb) (inHg) (C) (F) (%) (C) (F)
00:05 1015 29.97 845 24.95 10.8 51.5 69 5.4 41.8
00:10 1015 29.97 845 24.95 10.8 51.4 69 5.4 41.8
00:15 1015 29.97 844 24.92 10.6 51 70 5.4 41.7
00:20 1015 29.97 844 24.92 10.6 51 70 5.2 41.4
00:25 1015 29.97 844 24.92 10.5 50.8 70 5.3 41.6
00:30 1015 29.97 844 24.92 10.4 50.8 69 5.1 41.1
00:35 1015 29.97 844 24.92 10.6 51 69 5.2 41.4
00:40 1015 29.97 844 24.92 10.6 51.1 69 5.3 41.6
00:45 1015 29.97 844 24.92 10.5 50.9 69 5.2 41.3
00:50 1015 29.97 844 24.92 10.4 50.8 70 5.3 41.5
00:55 1015 29.97 844 24.92 10.4 50.7 70 5.2 41.4
01:00 1015 29.97 844 24.92 10.3 50.5 71 5.2 41.3
01:05 1015 29.97 844 24.92 10.1 50.2 71 5.1 41.1
01:10 1015 29.97 844 24.92 10.1 50.2 70 5 40.9
01:15 1015 29.97 844 24.92 10.3 50.5 68 4.8 40.6
01:20 1015 29.97 844 24.92 10.5 50.8 68 4.9 40.8
01:25 1015 29.97 844 24.92 10.4 50.7 69 5 41
01:30 1015 29.97 844 24.92 10.4 50.6 69 5 40.9
01:35 1015 29.97 844 24.92 10.3 50.5 69 4.9 40.9
01:40 1015 29.97 844 24.92 10.1 50.1 71 5 41
01:45 1015 29.97 844 24.92 9.7 49.5 71 4.8 40.7
01:50 1015 29.97 844 24.92 9.6 49.4 71 4.6 40.3
01:55 1015 29.97 844 24.92 9.7 49.4 70 4.6 40.2
02:00 1015 29.97 844 24.92 9.9 49.7 70 4.6 40.2
02:05 1015 29.97 844 24.92 9.9 49.9 69 4.5 40
02:10 1015 29.97 844 24.92 10.1 50.2 68 4.6 40.2
02:15 1015 29.97 844 24.92 10.1 50.2 68 4.5 40.1
02:20 1015 29.97 844 24.92 9.9 49.9 68 4.4 39.9
02:25 1015 29.97 844 24.92 10 50 66 4 39.2
02:30 1015 29.97 844 24.92 10.2 50.3 67 4.3 39.7
02:35 1015 29.97 844 24.92 10 50 66 4 39.1
02:40 1015 29.97 844 24.92 10.3 50.5 65 4 39.2
02:45 1015 29.97 844 24.92 10.5 50.8 66 4.3 39.8
02:50 1015 29.97 844 24.92 10.2 50.4 68 4.5 40.2
02:55 1015 29.97 844 24.92 9.8 49.7 70 4.7 40.4
03:00 1015 29.97 844 24.92 9.5 49.2 71 4.6 40.3
03:05 1015 29.97 844 24.92 9.3 48.8 73 4.7 40.4
03:10 1015 29.97 844 24.92 8.9 48 74 4.4 40
03:15 1015 29.97 844 24.92 8.7 47.7 73 4.2 39.5
03:20 1015 29.97 844 24.92 9 48.3 71 4 39.2
03:25 1015 29.97 844 24.92 9 48.2 69 3.7 38.6
03:30 1015 29.97 844 24.92 9.2 48.6 67 3.4 38.1
03:35 1015 29.97 844 24.92 9.5 49 67 3.6 38.4
03:40 1015 29.97 844 24.92 9.2 48.6 70 4 39.2
03:45 1015 29.97 844 24.92 9.1 48.4 68 3.7 38.6
03:50 1015 29.97 844 24.92 9.6 49.4 68 4.1 39.4
03:55 1015 29.97 844 24.92 9.6 49.3 70 4.4 39.9
04:00 1014 29.94 844 24.92 9.4 48.9 71 4.4 39.9
04:05 1014 29.94 844 24.92 9.1 48.3 73 4.5 40
04:10 1015 29.97 844 24.92 8.7 47.7 75 4.5 40.1
04:15 1015 29.97 844 24.92 8.4 47.1 76 4.4 39.9
04:20 1015 29.97 844 24.92 8.1 46.6 77 4.3 39.7
04:25 1015 29.97 844 24.92 7.9 46.2 77 4.1 39.3
04:30 1015 29.97 844 24.92 8 46.5 74 3.7 38.7
04:35 1015 29.97 844 24.92 8.6 47.5 71 3.7 38.6
04:40 1015 29.97 844 24.92 9.1 48.5 70 4 39.2
04:45 1015 29.97 844 24.92 9 48.2 71 4 39.2
04:50 1015 29.97 844 24.92 9 48.2 70 3.9 39.1
04:55 1015 29.97 844 24.92 9 48.1 71 4.1 39.3
05:00 1015 29.97 844 24.92 8.9 48 72 4.1 39.4
05:05 1015 29.97 844 24.92 8.7 47.6 74 4.2 39.6
05:10 1015 29.97 844 24.92 8.6 47.4 73 4.1 39.3
05:15 1015 29.97 844 24.92 8.5 47.4 74 4.1 39.5
05:20 1015 29.97 844 24.92 8.3 46.9 75 4.2 39.5
05:25 1015 29.97 844 24.92 8.1 46.5 75 4 39.2
05:30 1015 29.97 844 24.92 7.8 46 76 3.8 38.9
05:35 1015 29.97 844 24.92 7.7 45.8 76 3.7 38.7
05:40 1015 29.97 844 24.92 7.7 45.8 76 3.8 38.8
05:45 1015 29.97 844 24.92 7.6 45.8 76 3.7 38.7
05:50 1015 29.97 844 24.92 7.4 45.4 77 3.8 38.8
05:55 1015 29.97 844 24.92 7.5 45.4 76 3.5 38.4
06:00 1014 29.94 844 24.92 7.7 45.9 75 3.5 38.4
06:05 1014 29.94 844 24.92 7.8 46.1 75 3.7 38.6
06:10 1014 29.94 844 24.92 7.8 46.1 75 3.7 38.7
06:15 1014 29.94 844 24.92 7.9 46.3 75 3.8 38.9
06:20 1014 29.94 844 24.92 8 46.3 75 3.8 38.8
06:25 1014 29.94 844 24.92 8.1 46.5 75 3.9 39
06:30 1014 29.94 844 24.92 8.2 46.8 74 3.9 39.1
06:35 1015 29.97 844 24.92 8.4 47.2 73 3.9 39.1
06:40 1015 29.97 844 24.92 8.5 47.4 73 4 39.2
06:45 1015 29.97 844 24.92 8.7 47.6 73 4.1 39.4
06:50 1015 29.97 844 24.92 8.7 47.7 73 4.2 39.5
06:55 1015 29.97 844 24.92 8.7 47.7 73 4.2 39.6
07:00 1015 29.97 844 24.92 8.7 47.7 73 4.1 39.5
07:05 1015 29.97 844 24.92 9 48.1 71 4 39.3
07:10 1015 29.97 844 24.92 9.1 48.4 71 4.2 39.5
07:15 1015 29.97 844 24.92 9.2 48.5 72 4.3 39.8
07:20 1015 29.97 844 24.92 9.2 48.5 72 4.4 39.9
07:25 1015 29.97 844 24.92 9.2 48.6 72 4.5 40
07:30 1015 29.97 844 24.92 9.3 48.7 72 4.5 40.1
07:35 1015 29.97 844 24.92 9.5 49.1 70 4.4 40
07:40 1015 29.97 844 24.92 9.9 49.8 70 4.7 40.5
07:45 1015 29.97 844 24.92 10.4 50.8 68 4.9 40.8
07:50 1015 29.97 844 24.92 11 51.8 66 5.1 41.1
07:55 1015 29.97 844 24.92 11.2 52.1 65 4.9 40.9
08:00 1015 29.97 844 24.92 11.3 52.3 66 5.1 41.2
08:05 1015 29.97 844 24.92 11.9 53.4 63 5.2 41.3
08:10 1015 29.97 844 24.92 12 53.6 62 5.1 41.1
08:15 1014 29.94 844 24.92 12.2 54 62 5.3 41.6
08:20 1014 29.94 844 24.92 12.8 55.1 60 5.4 41.7
08:25 1014 29.94 844 24.92 13.4 56.1 58 5.3 41.6
08:30 1014 29.94 844 24.92 13.6 56.5 57 5.2 41.4
08:35 1014 29.94 844 24.92 13.9 56.9 56 5.4 41.7
08:40 1014 29.94 844 24.92 13.7 56.7 57 5.5 41.9
08:45 1014 29.94 843 24.89 14.3 57.7 56 5.7 42.3
08:50 1014 29.94 843 24.89 15 59.1 54 5.9 42.6
08:55 1014 29.94 843 24.89 15 58.9 54 5.8 42.5
09:00 1014 29.94 843 24.89 15.3 59.6 54 6.1 42.9
09:05 1014 29.94 843 24.89 16.3 61.3 48 5.3 41.6
09:10 1014 29.94 843 24.89 16.6 61.9 49 5.9 42.6
09:15 1014 29.94 843 24.89 16.3 61.3 49 5.5 41.9
09:20 1014 29.94 843 24.89 16.3 61.4 49 5.6 42.1
09:25 1014 29.94 844 24.92 16.2 61.2 48 5.3 41.5
09:30 1014 29.94 844 24.92 16.2 61.1 50 6 42.8
09:35 1014 29.94 844 24.92 15.8 60.5 50 5.6 42.1
09:40 1014 29.94 844 24.92 16.2 61.2 48 5.4 41.7
09:45 1014 29.94 843 24.89 16.9 62.4 47 5.6 42.1
09:50 1014 29.94 843 24.89 16.8 62.3 48 6 42.7
09:55 1014 29.94 843 24.89 17.9 64.3 45 5.9 42.6
10:00 1014 29.94 843 24.89 18.8 65.8 43 6 42.7
10:05 1014 29.94 843 24.89 18.5 65.2 42 5.6 42
10:10 1014 29.94 843 24.89 17.2 63 47 5.9 42.6
10:15 1014 29.94 843 24.89 16.9 62.5 46 5.4 41.7
10:20 1014 29.94 843 24.89 17.3 63.2 43 4.7 40.5
10:25 1014 29.94 843 24.89 17.4 63.3 46 5.7 42.3
10:30 1014 29.94 843 24.89 17.4 63.3 45 5.5 41.9
10:35 1014 29.94 843 24.89 17.8 64 40 4.1 39.3
10:40 1014 29.94 843 24.89 18.6 65.6 37 3.8 38.8
10:45 1014 29.94 843 24.89 18.7 65.7 37 3.8 38.8
10:50 1013 29.91 843 24.89 19.5 67.1 36 4.3 39.7
10:55 1013 29.91 843 24.89 20.8 69.5 32 3.9 39
11:00 1013 29.91 843 24.89 19.8 67.7 37 5 41
11:05 1013 29.91 842 24.86 20.1 68.1 34 3.8 38.9
11:10 1013 29.91 842 24.86 21.1 70 33 4.4 40
11:15 1013 29.91 842 24.86 19.7 67.4 37 4.8 40.6
11:20 1013 29.91 842 24.86 20 68.1 36 4.7 40.5
11:25 1013 29.91 842 24.86 20.1 68.1 37 5.1 41.2
11:30 1013 29.91 842 24.86 20.9 69.7 35 5.2 41.3
11:35 1013 29.91 842 24.86 20.5 68.8 36 4.9 40.8
11:40 1013 29.91 842 24.86 20.6 69 35 4.7 40.4
11:45 1013 29.91 842 24.86 20.6 69 39 6.4 43.5
11:50 1013 29.91 842 24.86 21.1 69.9 36 5.5 41.8
11:55 1013 29.91 842 24.86 21.5 70.7 35 5.6 42.1
12:00 1013 29.91 842 24.86 21.7 71.1 36 6 42.8
12:05 1013 29.91 842 24.86 21.7 71 34 5.3 41.5
12:10 1013 29.91 842 24.86 22.4 72.4 31 4.8 40.6
12:15 1013 29.91 842 24.86 22.4 72.3 33 5.5 41.8
12:20 1013 29.91 842 24.86 22.5 72.4 32 5.2 41.4
12:25 1013 29.91 842 24.86 21.7 71.1 33 4.8 40.6
12:30 1013 29.91 842 24.86 22.2 71.9 31 4.3 39.7
12:35 1013 29.91 842 24.86 21.9 71.4 33 5.2 41.3
12:40 1013 29.91 842 24.86 22.7 72.8 32 5.2 41.3
12:45 1013 29.91 842 24.86 22.5 72.5 33 5.7 42.3
12:50 1013 29.91 842 24.86 22.4 72.2 33 5.4 41.6
12:55 1013 29.91 842 24.86 23.7 74.7 30 5.5 42
13:00 1012 29.88 842 24.86 23 73.5 33 5.9 42.6
13:05 1012 29.88 842 24.86 23.5 74.2 33 6.3 43.4
13:10 1012 29.88 842 24.86 24.2 75.5 28 4.7 40.5
13:15 1012 29.88 842 24.86 24 75.2 28 4.5 40.2
13:20 1012 29.88 841 24.83 23.6 74.4 28 4.2 39.5
13:25 1012 29.88 841 24.83 23.1 73.6 27 3.3 38
13:30 1012 29.88 841 24.83 24.1 75.3 28 4.6 40.3
13:35 1012 29.88 841 24.83 23.6 74.4 29 4.6 40.3
13:40 1012 29.88 841 24.83 23.3 73.9 29 4.4 40
13:45 1012 29.88 841 24.83 23.4 74.2 30 5.2 41.3
13:50 1012 29.88 841 24.83 22.7 72.8 28 3.5 38.4
13:55 1012 29.88 841 24.83 23.6 74.4 28 4.2 39.5
14:00 1012 29.88 841 24.83 24.2 75.6 28 4.6 40.2
14:05 1012 29.88 841 24.83 23.8 74.9 29 4.8 40.7
14:10 1012 29.88 841 24.83 23 73.5 29 4.2 39.6
14:15 1012 29.88 841 24.83 22.9 73.1 28 3.8 38.8
14:20 1012 29.88 841 24.83 22.9 73.3 28 3.5 38.3
14:25 1012 29.88 841 24.83 23.7 74.6 27 3.8 38.9
14:30 1012 29.88 841 24.83 24.4 75.9 23 1.9 35.5
14:35 1012 29.88 841 24.83 24 75.1 23 2.1 35.7
14:40 1012 29.88 841 24.83 24.5 76.2 22 1.8 35.2
14:45 1012 29.88 841 24.83 24.6 76.2 24 2.7 36.8
14:50 1012 29.88 841 24.83 24.7 76.4 25 3.4 38.1
14:55 1011 29.85 841 24.83 23.8 74.8 26 3.3 37.9
15:00 1011 29.85 841 24.83 24.4 75.9 25 3.4 38.2
15:05 1011 29.85 841 24.83 24.6 76.3 24 3.1 37.6
15:10 1011 29.85 841 24.83 24.1 75.4 24 2.8 37
15:15 1011 29.85 841 24.83 24.1 75.5 24 2.8 37.1
15:20 1011 29.85 841 24.83 23.9 75 25 3 37.3
15:25 1011 29.85 840 24.81 24 75.2 23 1.9 35.4
15:30 1011 29.85 840 24.81 24.2 75.5 24 2.5 36.5
15:35 1011 29.85 840 24.81 23.6 74.5 25 2.8 37
15:40 1011 29.85 840 24.81 23.4 74 27 3.4 38.1
15:45 1011 29.85 840 24.81 22.7 72.8 28 3.5 38.2
15:50 1011 29.85 840 24.81 23 73.4 27 3.1 37.6
15:55 1011 29.85 840 24.81 22.9 73.2 26 2.7 36.9
16:00 1011 29.85 840 24.81 22.5 72.6 27 2.7 36.8
16:05 1011 29.85 840 24.81 22.6 72.7 27 2.9 37.2
16:10 1011 29.85 840 24.81 22.8 73 26 2.5 36.5
16:15 1011 29.85 840 24.81 23.7 74.7 26 3.1 37.5
16:20 1011 29.85 840 24.81 24.2 75.6 25 3.2 37.8
16:25 1011 29.85 840 24.81 24.5 76.2 25 3.3 38
16:30 1011 29.85 840 24.81 24.7 76.4 25 3.3 38
16:35 1011 29.85 840 24.81 24.3 75.7 25 3.5 38.2
16:40 1011 29.85 840 24.81 24.1 75.3 25 2.9 37.2
16:45 1011 29.85 840 24.81 24.4 75.9 24 2.6 36.7
16:50 1011 29.85 840 24.81 24.8 76.7 24 3.1 37.6
16:55 1011 29.85 840 24.81 25 77.1 25 3.8 38.8
17:00 1011 29.85 840 24.81 24.9 76.8 25 3.8 38.8
17:05 1011 29.85 840 24.81 24.3 75.7 27 4.2 39.6
17:10 1011 29.85 840 24.81 23.1 73.7 28 3.8 38.8
17:15 1011 29.85 840 24.81 22.9 73.2 27 2.9 37.2
17:20 1011 29.85 840 24.81 23 73.3 26 2.8 37
17:25 1011 29.85 840 24.81 23.2 73.8 25 2.6 36.6
17:30 1011 29.85 840 24.81 23.3 74 25 2.4 36.3
17:35 1011 29.85 840 24.81 23.5 74.2 26 3 37.4
17:40 1011 29.85 840 24.81 23.2 73.8 26 2.8 37
17:45 1011 29.85 840 24.81 23.1 73.6 28 3.6 38.4
17:50 1010 29.83 840 24.81 23.4 74.1 26 2.9 37.2
17:55 1010 29.83 840 24.81 23.7 74.7 27 4.1 39.4
18:00 1010 29.83 839 24.78 22.9 73.2 28 3.8 38.9
18:05 1010 29.83 839 24.78 22.9 73.1 28 3.4 38.1
18:10 1010 29.83 839 24.78 23.5 74.3 27 3.7 38.7
18:15 1010 29.83 839 24.78 23.1 73.5 28 3.8 38.8
18:20 1010 29.83 839 24.78 22.8 73 27 3.2 37.7
18:25 1010 29.83 839 24.78 22.7 72.8 28 3.3 38
18:30 1010 29.83 839 24.78 22.6 72.7 28 3.6 38.5
18:35 1010 29.83 839 24.78 22.6 72.7 29 3.8 38.9
18:40 1010 29.83 839 24.78 22.6 72.7 30 4.4 40
18:45 1010 29.83 839 24.78 22.6 72.7 30 4.4 39.9
18:50 1010 29.83 839 24.78 22.8 73.1 30 4.5 40
18:55 1010 29.83 839 24.78 22.8 73.1 29 4.2 39.5
19:00 1010 29.83 839 24.78 23.2 73.7 28 4.1 39.5
19:05 1010 29.83 839 24.78 23.3 73.9 29 4.3 39.8
19:10 1010 29.83 839 24.78 23 73.3 29 4.4 39.9
19:15 1010 29.83 839 24.78 22.5 72.5 30 4.4 39.9
19:20 1010 29.83 839 24.78 22.4 72.3 30 4.3 39.8
19:25 1010 29.83 839 24.78 22.2 71.9 31 4.3 39.8
19:30 1010 29.83 839 24.78 21.8 71.3 31 4.3 39.8
19:35 1010 29.83 839 24.78 21.8 71.2 32 4.6 40.2
19:40 1010 29.83 839 24.78 21.6 70.9 33 4.6 40.3
19:45 1010 29.83 839 24.78 21.6 71 33 4.9 40.8
19:50 1010 29.83 839 24.78 21.7 71 35 5.7 42.2
19:55 1010 29.83 839 24.78 21.5 70.7 35 5.7 42.2
20:00 1010 29.83 839 24.78 21.2 70.1 36 5.6 42
20:05 1010 29.83 839 24.78 21.1 69.9 37 6 42.8
20:10 1010 29.83 839 24.78 20.9 69.5 38 6 42.8
20:15 1010 29.83 840 24.81 20.7 69.3 39 6.3 43.4
20:20 1010 29.83 840 24.81 20.5 69 41 7 44.6
20:25 1011 29.85 840 24.81 20.2 68.4 43 7.2 45
20:30 1011 29.85 840 24.81 19.8 67.6 44 7.2 45
20:35 1011 29.85 840 24.81 19.7 67.5 44 7.4 45.3
20:40 1011 29.85 840 24.81 19.5 67 45 7.3 45.1
20:45 1011 29.85 841 24.83 19 66.2 46 7.1 44.8
20:50 1012 29.88 841 24.83 18.3 65 49 7.6 45.8
20:55 1012 29.88 841 24.83 17.7 63.8 53 8.2 46.7
21:00 1012 29.88 841 24.83 17 62.7 59 8.9 48.1
21:05 1012 29.88 841 24.83 16.2 61.2 63 9.2 48.6
21:10 1012 29.88 841 24.83 15.8 60.4 64 9 48.1
21:15 1012 29.88 841 24.83 15.7 60.2 65 9.2 48.5
21:20 1012 29.88 842 24.86 15.6 60.1 65 9.1 48.3
21:25 1013 29.91 842 24.86 15.6 60.1 65 9 48.3
21:30 1013 29.91 842 24.86 15.6 60.1 65 9 48.3
21:35 1013 29.91 842 24.86 15.6 60.2 66 9.3 48.8
21:40 1013 29.91 842 24.86 15.5 60 69 9.9 49.8
21:45 1013 29.91 842 24.86 15.2 59.4 70 9.9 49.8
21:50 1013 29.91 842 24.86 15 59 72 10.1 50.2
21:55 1013 29.91 843 24.89 14.9 58.7 73 10.2 50.3
22:00 1013 29.91 843 24.89 14.8 58.6 73 10.1 50.2
22:05 1014 29.94 843 24.89 14.6 58.4 76 10.6 51
22:10 1014 29.94 843 24.89 14.4 57.9 77 10.5 50.8
22:15 1014 29.94 843 24.89 13.9 56.9 81 10.7 51.2
22:20 1014 29.94 843 24.89 13.7 56.7 80 10.3 50.6
22:25 1014 29.94 843 24.89 13.7 56.6 83 10.8 51.4
22:30 1014 29.94 843 24.89 13.5 56.2 83 10.6 51
22:35 1014 29.94 843 24.89 13.4 56.1 83 10.6 51.1
22:40 1014 29.94 843 24.89 13.3 56 84 10.6 51.1
22:45 1014 29.94 843 24.89 13.3 55.9 83 10.5 50.9
22:50 1014 29.94 843 24.89 13.3 55.9 85 10.7 51.3
22:55 1014 29.94 843 24.89 13.2 55.8 84 10.7 51.2
23:00 1014 29.94 843 24.89 13.3 55.9 82 10.2 50.4
23:05 1013 29.91 843 24.89 13.3 55.9 85 10.8 51.4
23:10 1013 29.91 842 24.86 13.1 55.5 85 10.7 51.2
23:15 1013 29.91 842 24.86 12.9 55.3 87 10.8 51.4
23:20 1013 29.91 842 24.86 12.9 55.3 84 10.3 50.5
23:25 1013 29.91 842 24.86 12.9 55.2 85 10.4 50.7
23:30 1013 29.91 842 24.86 13 55.4 86 10.6 51.2
23:35 1013 29.91 842 24.86 13 55.3 84 10.3 50.5
23:40 1013 29.91 842 24.86 13.1 55.7 85 10.6 51.1
23:45 1013 29.91 842 24.86 13.2 55.7 85 10.7 51.3
23:50 1013 29.91 842 24.86 13.1 55.5 86 10.9 51.6
23:55 1012 29.88 842 24.86 12.9 55.2 87 10.8 51.5
24:00 1012 29.88 842 24.86 12.7 54.9 88 10.8 51.4